createdAt,value
2022-12-14T00:00:25.482Z,69.43
2022-12-14T00:02:57.315Z,69.82
2022-12-14T00:05:29.111Z,70.07
2022-12-14T00:08:01.240Z,70.03
2022-12-14T00:10:34.314Z,70.14
2022-12-14T00:13:07.403Z,69.97
2022-12-14T00:15:39.095Z,70.41
2022-12-14T00:18:11.725Z,70.04
2022-12-14T00:20:43.433Z,70.16
2022-12-14T00:23:15.152Z,70.74
2022-12-14T00:25:48.840Z,69.75
2022-12-14T00:28:20.818Z,70.33
2022-12-14T00:30:58.646Z,70.31
2022-12-14T00:33:30.803Z,70.60
2022-12-14T00:36:03.431Z,70.30
2022-12-14T00:38:35.621Z,70.05
2022-12-14T00:41:07.799Z,70.43
2022-12-14T00:43:39.990Z,70.92
2022-12-14T00:46:11.693Z,70.86
2022-12-14T00:48:43.498Z,70.26
2022-12-14T00:51:15.299Z,71.06
2022-12-14T00:53:47.116Z,70.86
2022-12-14T00:56:21.941Z,70.28
2022-12-14T00:58:54.370Z,70.17
2022-12-14T01:01:26.996Z,70.53
2022-12-14T01:04:22.495Z,70.72
2022-12-14T01:06:54.761Z,70.89
2022-12-14T01:09:26.886Z,70.89
2022-12-14T01:11:58.509Z,70.16
2022-12-14T01:14:30.145Z,70.58
2022-12-14T01:17:02.058Z,70.39
2022-12-14T01:19:34.677Z,70.51
2022-12-14T01:22:10.379Z,69.77
2022-12-14T01:24:46.465Z,69.91
2022-12-14T01:27:42.755Z,70.49
2022-12-14T01:30:14.561Z,70.40
2022-12-14T01:32:47.357Z,70.61
2022-12-14T01:35:19.816Z,69.99
2022-12-14T01:37:51.538Z,70.01
2022-12-14T01:40:23.166Z,69.78
2022-12-14T01:42:54.813Z,69.66
2022-12-14T01:45:26.756Z,69.96
2022-12-14T01:48:02.964Z,69.10
2022-12-14T01:50:41.296Z,69.27
2022-12-14T01:53:18.260Z,69.26
2022-12-14T01:55:54.522Z,69.44
2022-12-14T01:58:28.881Z,69.66
2022-12-14T02:01:02.461Z,69.66
2022-12-14T02:03:43.302Z,69.46
2022-12-14T02:06:26.550Z,69.35
2022-12-14T02:08:58.293Z,69.62
2022-12-14T02:11:44.005Z,69.72
2022-12-14T02:14:15.762Z,69.59
2022-12-14T02:16:54.094Z,69.53
2022-12-14T02:19:25.799Z,70.15
2022-12-14T02:22:38.673Z,69.78
2022-12-14T02:25:35.102Z,69.84
2022-12-14T02:28:34.303Z,70.35
2022-12-14T02:31:11.679Z,70.24
2022-12-14T02:34:10.441Z,70.27
2022-12-14T02:36:50.597Z,70.14
2022-12-14T02:40:00.203Z,70.05
2022-12-14T02:43:06.881Z,69.80
2022-12-14T02:45:54.677Z,69.57
2022-12-14T02:48:33.732Z,70.16
2022-12-14T02:51:40.838Z,69.60
2022-12-14T02:54:49.139Z,70.20
2022-12-14T02:57:26.989Z,70.10
2022-12-14T03:00:02.448Z,69.75
2022-12-14T03:02:37.710Z,69.70
2022-12-14T03:05:13.748Z,70.04
2022-12-14T03:07:53.195Z,70.25
2022-12-14T03:10:30.732Z,70.29
2022-12-14T03:13:13.070Z,70.81
2022-12-14T03:15:50.612Z,70.00
2022-12-14T03:18:26.470Z,70.91
2022-12-14T03:21:01.036Z,69.81
2022-12-14T03:23:36.425Z,70.68
2022-12-14T03:26:16.191Z,71.14
2022-12-14T03:29:01.734Z,71.01
2022-12-14T03:31:58.860Z,70.79
2022-12-14T03:34:57.832Z,70.75
2022-12-14T03:37:48.775Z,71.23
2022-12-14T03:40:33.833Z,70.49
2022-12-14T03:43:38.370Z,70.68
2022-12-14T03:46:15.846Z,70.58
2022-12-14T03:48:52.031Z,70.33
2022-12-14T03:51:57.847Z,70.36
2022-12-14T03:54:44.509Z,69.76
2022-12-14T03:57:59.542Z,70.05
2022-12-14T04:00:40.239Z,69.82
2022-12-14T04:03:35.405Z,69.88
2022-12-14T04:06:14.697Z,69.93
2022-12-14T04:09:10.984Z,69.50
2022-12-14T04:12:07.659Z,70.01
2022-12-14T04:15:10.200Z,70.24
2022-12-14T04:18:03.163Z,70.49
2022-12-14T04:20:49.469Z,70.60
2022-12-14T04:23:47.098Z,70.62
2022-12-14T04:26:26.280Z,70.33
2022-12-14T04:29:21.857Z,70.21
2022-12-14T04:31:58.846Z,70.35
2022-12-14T04:34:35.080Z,70.06
2022-12-14T04:37:14.349Z,70.26
2022-12-14T04:40:05.432Z,69.92
2022-12-14T04:42:45.319Z,70.20
2022-12-14T04:45:34.471Z,70.22
2022-12-14T04:48:25.500Z,69.73
2022-12-14T04:51:13.660Z,70.04
2022-12-14T04:53:49.187Z,69.97
2022-12-14T04:56:29.756Z,71.07
2022-12-14T04:59:01.627Z,70.50
2022-12-14T05:01:49.174Z,69.67
2022-12-14T05:04:29.800Z,69.73
2022-12-14T05:07:20.227Z,69.83
2022-12-14T05:10:03.844Z,70.38
2022-12-14T05:12:52.590Z,69.75
2022-12-14T05:15:32.037Z,69.96
2022-12-14T05:18:05.344Z,70.19
2022-12-14T05:20:36.989Z,70.46
2022-12-14T05:23:08.729Z,70.39
2022-12-14T05:25:40.457Z,70.26
2022-12-14T05:28:12.549Z,70.24
2022-12-14T05:30:48.849Z,69.88
2022-12-14T05:33:21.188Z,69.59
2022-12-14T05:35:53.297Z,70.05
2022-12-14T05:38:24.973Z,69.92
2022-12-14T05:40:56.653Z,69.56
2022-12-14T05:43:28.581Z,70.03
2022-12-14T05:46:05.621Z,69.68
2022-12-14T05:48:37.406Z,70.26
2022-12-14T05:51:11.249Z,70.54
2022-12-14T05:53:43.032Z,70.19
2022-12-14T05:56:14.772Z,70.20
2022-12-14T05:58:50.864Z,69.93
2022-12-14T06:01:22.670Z,70.21
2022-12-14T06:03:54.439Z,69.61
2022-12-14T06:06:26.311Z,69.66
2022-12-14T06:08:57.941Z,69.82
2022-12-14T06:11:29.957Z,70.51
2022-12-14T06:14:02.797Z,70.09
2022-12-14T06:16:35.334Z,70.25
2022-12-14T06:19:07.688Z,69.52
2022-12-14T06:21:41.343Z,69.84
2022-12-14T06:24:14.228Z,69.59
2022-12-14T06:26:46.815Z,70.01
2022-12-14T06:29:20.120Z,69.84
2022-12-14T06:31:51.790Z,69.84
2022-12-14T06:34:28.322Z,69.94
2022-12-14T06:37:01.729Z,69.94
2022-12-14T06:39:33.276Z,69.66
2022-12-14T06:42:05.763Z,69.82
2022-12-14T06:44:37.534Z,70.02
2022-12-14T06:47:09.119Z,69.76
2022-12-14T06:49:40.687Z,70.41
2022-12-14T06:52:12.400Z,70.13
2022-12-14T06:54:47.014Z,69.97
2022-12-14T06:57:18.692Z,70.07
2022-12-14T06:59:50.305Z,70.50
2022-12-14T07:02:22.071Z,70.68
2022-12-14T07:04:53.782Z,70.68
2022-12-14T07:07:28.423Z,70.69
2022-12-14T07:10:00.915Z,71.08
2022-12-14T07:12:32.574Z,70.13
2022-12-14T07:15:04.851Z,70.24
2022-12-14T07:17:37.435Z,70.47
2022-12-14T07:20:10.097Z,70.23
2022-12-14T07:22:41.755Z,70.85
2022-12-14T07:25:13.379Z,70.18
2022-12-14T07:27:45.483Z,70.33
2022-12-14T07:30:17.031Z,70.03
2022-12-14T07:32:48.638Z,70.11
2022-12-14T07:35:23.055Z,70.17
2022-12-14T07:37:54.678Z,70.56
2022-12-14T07:40:26.231Z,70.32
2022-12-14T07:42:57.790Z,70.04
2022-12-14T07:45:33.567Z,70.15
2022-12-14T07:48:07.343Z,70.03
2022-12-14T07:50:38.928Z,70.04
2022-12-14T07:53:10.624Z,70.17
2022-12-14T07:55:42.159Z,70.39
2022-12-14T07:58:13.861Z,70.63
2022-12-14T08:00:45.439Z,70.25
2022-12-14T08:03:17.005Z,69.81
2022-12-14T08:05:50.775Z,69.66
2022-12-14T08:08:25.216Z,70.29
2022-12-14T08:10:56.792Z,70.68
2022-12-14T08:13:28.893Z,70.41
2022-12-14T08:16:06.206Z,70.59
2022-12-14T08:18:41.257Z,70.01
2022-12-14T08:21:15.353Z,70.18
2022-12-14T08:23:47.494Z,70.26
2022-12-14T08:26:19.536Z,70.04
2022-12-14T08:28:51.135Z,70.46
2022-12-14T08:31:24.985Z,70.19
2022-12-14T08:33:59.301Z,70.02
2022-12-14T08:36:35.674Z,70.02
2022-12-14T08:39:10.034Z,70.26
2022-12-14T08:41:41.987Z,70.42
2022-12-14T08:44:16.968Z,69.90
2022-12-14T08:46:48.925Z,70.16
2022-12-14T08:49:20.920Z,69.46
2022-12-14T08:51:52.646Z,69.65
2022-12-14T08:54:24.328Z,69.60
2022-12-14T08:56:55.971Z,69.53
2022-12-14T08:59:59.704Z,69.81
2022-12-14T09:02:19.535Z,69.13
2022-12-14T09:04:51.716Z,69.53
2022-12-14T09:07:24.637Z,69.27
2022-12-14T09:09:56.318Z,69.07
2022-12-14T09:12:28.656Z,68.79
2022-12-14T09:15:01.131Z,68.82
2022-12-14T09:17:33.811Z,68.47
2022-12-14T09:20:06.533Z,69.07
2022-12-14T09:22:41.178Z,69.36
2022-12-14T09:25:15.996Z,69.93
2022-12-14T09:27:47.653Z,69.53
2022-12-14T09:30:26.236Z,69.46
2022-12-14T09:32:58.284Z,69.67
2022-12-14T09:35:29.883Z,69.58
2022-12-14T09:38:01.563Z,69.69
2022-12-14T09:40:34.200Z,69.12
2022-12-14T09:43:10.544Z,69.74
2022-12-14T09:45:54.950Z,69.72
2022-12-14T09:48:27.172Z,69.94
2022-12-14T09:50:59.415Z,70.03
2022-12-14T09:53:31.526Z,69.65
2022-12-14T09:56:15.019Z,69.81
2022-12-14T09:58:54.486Z,69.98
2022-12-14T10:02:13.937Z,70.54
2022-12-14T10:05:08.720Z,70.60
2022-12-14T10:07:46.487Z,70.57
2022-12-14T10:10:28.966Z,70.20
2022-12-14T10:13:18.730Z,70.84
2022-12-14T10:16:08.585Z,70.29
2022-12-14T10:19:00.964Z,70.40
2022-12-14T10:21:39.015Z,70.51
2022-12-14T10:24:17.754Z,70.17
2022-12-14T10:26:54.959Z,70.61
2022-12-14T10:29:40.702Z,70.18
2022-12-14T10:32:22.532Z,70.40
2022-12-14T10:34:54.181Z,69.88
2022-12-14T10:37:38.452Z,69.94
2022-12-14T10:40:30.774Z,69.83
2022-12-14T10:43:33.743Z,69.38
2022-12-14T10:46:14.251Z,70.21
2022-12-14T10:48:53.923Z,70.43
2022-12-14T10:51:31.659Z,70.31
2022-12-14T10:54:15.567Z,70.20
2022-12-14T10:56:50.020Z,70.05
2022-12-14T10:59:21.795Z,69.60
2022-12-14T11:02:03.545Z,69.82
2022-12-14T11:04:56.493Z,70.08
2022-12-14T11:07:34.117Z,69.92
2022-12-14T11:10:22.347Z,70.06
2022-12-14T11:12:53.821Z,70.31
2022-12-14T11:15:47.045Z,69.97
2022-12-14T11:18:19.779Z,69.82
2022-12-14T11:20:57.623Z,69.76
2022-12-14T11:23:45.949Z,69.19
2022-12-14T11:26:42.265Z,69.50
2022-12-14T11:29:21.551Z,69.69
2022-12-14T11:31:53.356Z,70.04
2022-12-14T11:34:40.685Z,70.37
2022-12-14T11:37:22.918Z,70.15
2022-12-14T11:39:58.516Z,69.64
2022-12-14T11:42:31.085Z,69.98
2022-12-14T11:45:25.896Z,69.96
2022-12-14T11:48:11.093Z,69.86
2022-12-14T11:50:45.095Z,69.80
2022-12-14T11:53:19.436Z,69.88
2022-12-14T11:55:56.148Z,70.16
2022-12-14T11:58:32.326Z,70.50
2022-12-14T12:01:16.891Z,70.58
2022-12-14T12:03:52.184Z,70.44
2022-12-14T12:06:29.882Z,70.13
2022-12-14T12:09:03.700Z,70.32
2022-12-14T12:11:35.909Z,70.51
2022-12-14T12:14:22.532Z,70.56
2022-12-14T12:16:54.186Z,71.18
2022-12-14T12:19:37.181Z,70.89
2022-12-14T12:22:11.913Z,70.58
2022-12-14T12:25:16.691Z,70.20
2022-12-14T12:27:49.238Z,70.91
2022-12-14T12:30:28.593Z,70.82
2022-12-14T12:33:18.280Z,70.81
2022-12-14T12:36:00.001Z,70.45
2022-12-14T12:38:55.991Z,70.63
2022-12-14T12:41:39.893Z,71.01
2022-12-14T12:44:34.515Z,70.63
2022-12-14T12:47:26.791Z,70.68
2022-12-14T12:50:24.574Z,70.68
2022-12-14T12:53:17.362Z,71.44
2022-12-14T12:55:57.087Z,71.46
2022-12-14T12:58:35.806Z,71.39
2022-12-14T13:01:23.243Z,71.18
2022-12-14T13:04:03.195Z,71.02
2022-12-14T13:06:46.271Z,71.21
2022-12-14T13:09:30.237Z,71.09
2022-12-14T13:12:03.369Z,71.30
2022-12-14T13:14:41.219Z,71.30
2022-12-14T13:17:41.582Z,70.81
2022-12-14T13:20:27.085Z,71.16
2022-12-14T13:23:15.172Z,71.69
2022-12-14T13:26:56.632Z,71.49
2022-12-14T13:29:26.274Z,72.01
2022-12-14T13:32:04.115Z,72.01
2022-12-14T13:35:00.320Z,72.48
2022-12-14T13:37:51.194Z,72.40
2022-12-14T13:40:35.756Z,71.52
2022-12-14T13:43:35.727Z,72.03
2022-12-14T13:46:15.054Z,72.03
2022-12-14T13:48:50.260Z,71.84
2022-12-14T13:51:35.317Z,72.03
2022-12-14T13:54:27.762Z,72.28
2022-12-14T13:57:14.542Z,71.94
2022-12-14T13:59:50.156Z,72.12
2022-12-14T14:02:27.648Z,72.24
2022-12-14T14:05:14.662Z,71.78
2022-12-14T14:07:51.761Z,72.57
2022-12-14T14:10:32.229Z,72.96
2022-12-14T14:13:29.112Z,72.82
2022-12-14T14:16:38.800Z,72.75
2022-12-14T14:19:20.743Z,72.91
2022-12-14T14:22:26.576Z,73.25
2022-12-14T14:25:01.230Z,72.92
2022-12-14T14:27:37.787Z,73.71
2022-12-14T14:30:31.006Z,73.44
2022-12-14T14:33:43.075Z,73.37
2022-12-14T14:36:18.629Z,73.77
2022-12-14T14:38:51.065Z,73.83
2022-12-14T14:41:31.967Z,73.79
2022-12-14T14:44:08.136Z,75.09
2022-12-14T14:46:45.870Z,75.35
2022-12-14T14:49:40.232Z,74.98
2022-12-14T14:52:42.863Z,74.59
2022-12-14T14:58:42.826Z,75.05
2022-12-14T15:01:28.578Z,74.92
2022-12-14T15:04:18.454Z,75.28
2022-12-14T15:07:01.817Z,75.27
2022-12-14T15:09:40.005Z,75.11
2022-12-14T15:12:33.081Z,75.25
2022-12-14T15:15:16.609Z,74.99
2022-12-14T15:17:48.396Z,74.63
2022-12-14T15:20:29.607Z,75.53
2022-12-14T15:23:05.971Z,75.29
2022-12-14T15:25:37.645Z,75.71
2022-12-14T15:28:22.154Z,75.92
2022-12-14T15:31:01.908Z,75.83
2022-12-14T15:33:44.854Z,75.85
2022-12-14T15:36:26.261Z,76.14
2022-12-14T15:38:59.015Z,75.27
2022-12-14T15:41:33.237Z,75.78
2022-12-14T15:44:23.517Z,76.14
2022-12-14T15:46:55.363Z,76.10
2022-12-14T15:49:27.516Z,75.37
2022-12-14T15:51:59.502Z,76.17
2022-12-14T15:54:34.620Z,76.26
2022-12-14T15:57:19.104Z,76.14
2022-12-14T15:59:55.026Z,76.08
2022-12-14T16:02:31.826Z,76.82
2022-12-14T16:05:03.922Z,76.71
2022-12-14T16:07:42.035Z,76.87
2022-12-14T16:10:33.173Z,77.50
2022-12-14T16:13:14.323Z,77.19
2022-12-14T16:15:46.658Z,77.65
2022-12-14T16:18:21.364Z,77.24
2022-12-14T16:21:02.760Z,77.50
2022-12-14T16:23:45.525Z,77.45
2022-12-14T16:26:34.728Z,77.83
2022-12-14T16:29:22.804Z,77.96
2022-12-14T16:32:00.227Z,77.25
2022-12-14T16:34:35.892Z,78.05
2022-12-14T16:37:32.307Z,77.84
2022-12-14T16:40:03.836Z,77.63
2022-12-14T16:42:38.722Z,77.41
2022-12-14T16:45:36.159Z,77.57
2022-12-14T16:48:19.480Z,77.82
2022-12-14T16:51:03.653Z,77.81
2022-12-14T16:53:56.847Z,78.01
2022-12-14T16:56:32.664Z,78.07
2022-12-14T16:59:37.390Z,77.29
2022-12-14T17:02:32.057Z,78.38
2022-12-14T17:05:17.729Z,78.22
2022-12-14T17:07:50.050Z,78.34
2022-12-14T17:10:24.320Z,78.64
2022-12-14T17:13:03.371Z,78.63
2022-12-14T17:15:35.299Z,77.81
2022-12-14T17:18:07.951Z,77.95
2022-12-14T17:20:40.650Z,77.87
2022-12-14T17:23:17.989Z,78.65
2022-12-14T17:25:50.841Z,78.39
2022-12-14T17:28:30.632Z,78.13
2022-12-14T17:31:03.201Z,78.07
2022-12-14T17:33:35.151Z,78.48
2022-12-14T17:36:07.010Z,77.55
2022-12-14T17:38:38.669Z,78.28
2022-12-14T17:41:30.556Z,78.08
2022-12-14T17:44:03.806Z,77.93
2022-12-14T17:46:35.610Z,77.93
2022-12-14T17:49:07.424Z,78.14
2022-12-14T17:51:44.148Z,77.45
2022-12-14T17:54:27.359Z,78.02
2022-12-14T17:57:01.035Z,78.19
2022-12-14T17:59:37.004Z,77.72
2022-12-14T18:02:26.814Z,77.68
2022-12-14T18:04:59.305Z,77.80
2022-12-14T18:07:31.010Z,77.60
2022-12-14T18:10:02.708Z,77.15
2022-12-14T18:12:34.280Z,77.35
2022-12-14T18:15:16.937Z,77.42
2022-12-14T18:17:49.304Z,77.80
2022-12-14T18:20:23.437Z,77.57
2022-12-14T18:22:58.077Z,77.88
2022-12-14T18:25:37.479Z,77.79
2022-12-14T18:28:11.788Z,77.01
2022-12-14T18:30:50.745Z,77.38
2022-12-14T18:33:28.920Z,77.07
2022-12-14T18:36:01.011Z,77.42
2022-12-14T18:38:33.890Z,76.81
2022-12-14T18:41:06.671Z,76.71
2022-12-14T18:43:43.425Z,76.82
2022-12-14T18:46:16.370Z,77.01
2022-12-14T18:48:48.569Z,76.77
2022-12-14T18:51:23.996Z,76.96
2022-12-14T18:53:58.065Z,76.92
2022-12-14T18:56:29.773Z,77.00
2022-12-14T18:59:01.395Z,77.17
2022-12-14T19:01:33.271Z,76.61
2022-12-14T19:04:08.415Z,76.72
2022-12-14T19:06:49.970Z,76.74
2022-12-14T19:09:21.986Z,76.21
2022-12-14T19:11:53.687Z,75.87
2022-12-14T19:14:25.983Z,75.84
2022-12-14T19:16:57.718Z,75.79
2022-12-14T19:19:36.847Z,76.17
2022-12-14T19:22:12.691Z,75.71
2022-12-14T19:24:47.788Z,75.75
2022-12-14T19:27:58.863Z,75.95
2022-12-14T19:30:22.719Z,76.01
2022-12-14T19:32:56.846Z,76.22
2022-12-14T19:35:29.379Z,76.73
2022-12-14T19:38:01.064Z,76.52
2022-12-14T19:40:32.949Z,76.66
2022-12-14T19:43:04.644Z,76.46
2022-12-14T19:45:40.664Z,76.38
2022-12-14T19:48:13.547Z,76.30
2022-12-14T19:50:49.239Z,76.01
2022-12-14T19:53:24.304Z,75.62
2022-12-14T19:55:55.966Z,76.11
2022-12-14T19:58:29.224Z,75.97
2022-12-14T20:01:01.432Z,76.19
2022-12-14T20:03:33.614Z,76.26
2022-12-14T20:06:07.010Z,75.98
2022-12-14T20:08:38.674Z,75.73
2022-12-14T20:11:11.406Z,75.81
2022-12-14T20:13:46.046Z,75.76
2022-12-14T20:16:18.877Z,74.87
2022-12-14T20:18:50.817Z,74.88
2022-12-14T20:21:25.607Z,74.88
2022-12-14T20:23:57.814Z,74.86
2022-12-14T20:26:32.064Z,74.91
2022-12-14T20:29:06.016Z,74.55
2022-12-14T20:31:38.020Z,74.86
2022-12-14T20:34:13.040Z,74.69
2022-12-14T20:36:44.641Z,74.75
2022-12-14T20:39:16.313Z,74.49
2022-12-14T20:41:48.128Z,74.50
2022-12-14T20:44:19.824Z,74.30
2022-12-14T20:46:51.914Z,74.23
2022-12-14T20:49:29.515Z,74.32
2022-12-14T20:52:03.209Z,74.17
2022-12-14T20:54:34.944Z,74.08
2022-12-14T20:57:06.633Z,74.49
2022-12-14T20:59:38.393Z,74.45
2022-12-14T21:02:16.958Z,74.70
2022-12-14T21:04:49.007Z,74.83
2022-12-14T21:07:25.881Z,74.77
2022-12-14T21:09:58.031Z,75.09
2022-12-14T21:12:29.713Z,74.96
2022-12-14T21:15:01.953Z,75.45
2022-12-14T21:17:33.775Z,75.62
2022-12-14T21:20:09.097Z,76.59
2022-12-14T21:22:40.765Z,76.27
2022-12-14T21:25:12.338Z,76.65
2022-12-14T21:27:44.017Z,76.08
2022-12-14T21:30:16.957Z,76.12
2022-12-14T21:32:48.529Z,75.54
2022-12-14T21:35:20.970Z,75.49
2022-12-14T21:37:52.610Z,75.30
2022-12-14T21:40:42.980Z,75.73
2022-12-14T21:43:15.163Z,75.49
2022-12-14T21:45:46.758Z,75.75
2022-12-14T21:48:18.565Z,75.61
2022-12-14T21:50:50.357Z,75.05
2022-12-14T21:53:22.077Z,75.92
2022-12-14T21:56:13.650Z,75.57
2022-12-14T21:58:52.999Z,75.40
2022-12-14T22:01:25.944Z,75.53
2022-12-14T22:03:58.813Z,75.46
2022-12-14T22:06:31.766Z,75.72
2022-12-14T22:09:04.314Z,75.51
2022-12-14T22:11:35.908Z,75.43
2022-12-14T22:14:15.022Z,75.54
2022-12-14T22:16:47.644Z,75.33
2022-12-14T22:19:22.569Z,75.21
2022-12-14T22:21:54.084Z,74.87
2022-12-14T22:24:28.053Z,75.16
2022-12-14T22:26:59.726Z,75.24
2022-12-14T22:29:31.376Z,75.12
2022-12-14T22:32:02.992Z,74.80
2022-12-14T22:34:34.761Z,75.34
2022-12-14T22:37:06.339Z,75.18
2022-12-14T22:39:37.907Z,75.07
2022-12-14T22:42:10.518Z,74.73
2022-12-14T22:44:42.156Z,75.17
2022-12-14T22:47:17.208Z,74.76
2022-12-14T22:49:48.858Z,75.19
2022-12-14T22:52:24.703Z,74.64
2022-12-14T22:54:57.136Z,74.74
2022-12-14T22:57:29.857Z,74.70
2022-12-14T23:00:07.334Z,74.51
2022-12-14T23:02:41.514Z,74.81
2022-12-14T23:05:19.488Z,74.91
2022-12-14T23:07:51.040Z,74.33
2022-12-14T23:10:41.258Z,74.31
2022-12-14T23:13:34.297Z,74.50
2022-12-14T23:16:24.483Z,74.96
2022-12-14T23:19:14.564Z,75.40
2022-12-14T23:22:04.689Z,75.08
2022-12-14T23:24:54.928Z,75.21
2022-12-14T23:27:45.244Z,75.18
2022-12-14T23:30:35.764Z,75.20
2022-12-14T23:33:28.406Z,75.35
2022-12-14T23:36:20.034Z,74.65
2022-12-14T23:39:10.183Z,74.90
2022-12-14T23:42:00.344Z,74.82
2022-12-14T23:44:50.682Z,74.98
2022-12-14T23:47:42.392Z,74.89
2022-12-14T23:50:32.592Z,74.72
2022-12-14T23:53:26.673Z,74.17
2022-12-14T23:56:18.593Z,74.38
2022-12-14T23:59:13.332Z,74.02
